sensor_id;sensor_type;location;lat;lon;timestamp;P1;durP1;ratioP1;P2;durP2;ratioP2
11839;SDS011;5979;50.800;4.904;2023-05-27T00:02:05;10.82;;;5.18;;
11839;SDS011;5979;50.800;4.904;2023-05-27T00:04:31;16.27;;;5.13;;
11839;SDS011;5979;50.800;4.904;2023-05-27T00:06:57;14.18;;;5.30;;
11839;SDS011;5979;50.800;4.904;2023-05-27T00:09:22;11.35;;;4.97;;
11839;SDS011;5979;50.800;4.904;2023-05-27T00:11:48;10.25;;;4.88;;
11839;SDS011;5979;50.800;4.904;2023-05-27T00:14:14;14.00;;;5.00;;
11839;SDS011;5979;50.800;4.904;2023-05-27T00:16:42;12.25;;;5.00;;
11839;SDS011;5979;50.800;4.904;2023-05-27T00:19:08;9.98;;;4.70;;
11839;SDS011;5979;50.800;4.904;2023-05-27T00:21:33;9.80;;;4.88;;
11839;SDS011;5979;50.800;4.904;2023-05-27T00:23:59;9.65;;;4.80;;
11839;SDS011;5979;50.800;4.904;2023-05-27T00:26:25;11.65;;;5.20;;
11839;SDS011;5979;50.800;4.904;2023-05-27T00:28:51;14.52;;;5.90;;
11839;SDS011;5979;50.800;4.904;2023-05-27T00:31:17;16.17;;;5.75;;
11839;SDS011;5979;50.800;4.904;2023-05-27T00:33:43;16.40;;;5.63;;
11839;SDS011;5979;50.800;4.904;2023-05-27T00:36:09;11.35;;;4.82;;
11839;SDS011;5979;50.800;4.904;2023-05-27T00:38:35;11.70;;;4.82;;
11839;SDS011;5979;50.800;4.904;2023-05-27T00:41:02;13.35;;;5.32;;
11839;SDS011;5979;50.800;4.904;2023-05-27T00:43:28;11.75;;;4.95;;
11839;SDS011;5979;50.800;4.904;2023-05-27T00:45:57;12.98;;;5.60;;
11839;SDS011;5979;50.800;4.904;2023-05-27T00:48:23;8.30;;;4.75;;
11839;SDS011;5979;50.800;4.904;2023-05-27T00:50:49;8.73;;;5.03;;
11839;SDS011;5979;50.800;4.904;2023-05-27T00:53:15;12.68;;;6.13;;
11839;SDS011;5979;50.800;4.904;2023-05-27T00:55:42;10.73;;;5.15;;
11839;SDS011;5979;50.800;4.904;2023-05-27T00:58:08;11.25;;;5.25;;
11839;SDS011;5979;50.800;4.904;2023-05-27T01:00:34;12.57;;;5.03;;
11839;SDS011;5979;50.800;4.904;2023-05-27T01:03:04;15.80;;;6.13;;
11839;SDS011;5979;50.800;4.904;2023-05-27T01:05:31;12.10;;;5.03;;
11839;SDS011;5979;50.800;4.904;2023-05-27T01:10:40;13.45;;;6.00;;
11839;SDS011;5979;50.800;4.904;2023-05-27T01:15:51;15.40;;;5.95;;
11839;SDS011;5979;50.800;4.904;2023-05-27T01:18:19;15.40;;;6.25;;
11839;SDS011;5979;50.800;4.904;2023-05-27T01:20:48;11.93;;;5.40;;
11839;SDS011;5979;50.800;4.904;2023-05-27T01:23:16;9.95;;;4.75;;
11839;SDS011;5979;50.800;4.904;2023-05-27T01:25:42;13.50;;;5.57;;
11839;SDS011;5979;50.800;4.904;2023-05-27T01:28:08;15.52;;;5.47;;
11839;SDS011;5979;50.800;4.904;2023-05-27T01:30:34;10.68;;;5.75;;
11839;SDS011;5979;50.800;4.904;2023-05-27T01:35:45;17.80;;;6.97;;
11839;SDS011;5979;50.800;4.904;2023-05-27T01:38:16;12.50;;;5.40;;
11839;SDS011;5979;50.800;4.904;2023-05-27T01:40:44;12.40;;;5.70;;
11839;SDS011;5979;50.800;4.904;2023-05-27T01:43:12;11.07;;;5.22;;
11839;SDS011;5979;50.800;4.904;2023-05-27T01:45:40;13.20;;;5.22;;
11839;SDS011;5979;50.800;4.904;2023-05-27T01:48:06;14.10;;;5.03;;
11839;SDS011;5979;50.800;4.904;2023-05-27T01:50:34;18.20;;;6.15;;
11839;SDS011;5979;50.800;4.904;2023-05-27T01:53:00;16.98;;;5.72;;
11839;SDS011;5979;50.800;4.904;2023-05-27T01:55:28;13.88;;;5.10;;
11839;SDS011;5979;50.800;4.904;2023-05-27T01:57:55;11.77;;;5.28;;
11839;SDS011;5979;50.800;4.904;2023-05-27T02:00:21;10.77;;;5.30;;
11839;SDS011;5979;50.800;4.904;2023-05-27T02:02:47;11.07;;;5.72;;
11839;SDS011;5979;50.800;4.904;2023-05-27T02:05:13;11.93;;;5.38;;
11839;SDS011;5979;50.800;4.904;2023-05-27T02:07:38;11.35;;;5.50;;
11839;SDS011;5979;50.800;4.904;2023-05-27T02:10:04;8.45;;;4.70;;
11839;SDS011;5979;50.800;4.904;2023-05-27T02:12:30;12.18;;;5.85;;
11839;SDS011;5979;50.800;4.904;2023-05-27T02:14:56;11.43;;;5.68;;
11839;SDS011;5979;50.800;4.904;2023-05-27T02:17:22;13.25;;;5.90;;
11839;SDS011;5979;50.800;4.904;2023-05-27T02:19:49;11.55;;;5.63;;
11839;SDS011;5979;50.800;4.904;2023-05-27T02:22:15;14.57;;;5.63;;
11839;SDS011;5979;50.800;4.904;2023-05-27T02:24:41;13.25;;;5.80;;
11839;SDS011;5979;50.800;4.904;2023-05-27T02:27:07;11.32;;;5.45;;
11839;SDS011;5979;50.800;4.904;2023-05-27T02:29:33;11.63;;;5.30;;
11839;SDS011;5979;50.800;4.904;2023-05-27T02:31:59;15.35;;;6.13;;
11839;SDS011;5979;50.800;4.904;2023-05-27T02:34:24;15.20;;;5.72;;
11839;SDS011;5979;50.800;4.904;2023-05-27T02:36:50;14.10;;;5.57;;
11839;SDS011;5979;50.800;4.904;2023-05-27T02:39:16;13.70;;;5.97;;
11839;SDS011;5979;50.800;4.904;2023-05-27T02:41:42;13.23;;;5.20;;
11839;SDS011;5979;50.800;4.904;2023-05-27T02:44:08;11.13;;;5.78;;
11839;SDS011;5979;50.800;4.904;2023-05-27T02:46:33;16.88;;;5.82;;
11839;SDS011;5979;50.800;4.904;2023-05-27T02:48:59;20.00;;;6.85;;
11839;SDS011;5979;50.800;4.904;2023-05-27T02:51:25;15.02;;;5.80;;
11839;SDS011;5979;50.800;4.904;2023-05-27T02:53:50;11.95;;;5.80;;
11839;SDS011;5979;50.800;4.904;2023-05-27T02:56:17;15.82;;;6.00;;
11839;SDS011;5979;50.800;4.904;2023-05-27T02:58:42;15.23;;;6.78;;
11839;SDS011;5979;50.800;4.904;2023-05-27T03:01:08;15.80;;;6.05;;
11839;SDS011;5979;50.800;4.904;2023-05-27T03:03:34;14.18;;;5.43;;
11839;SDS011;5979;50.800;4.904;2023-05-27T03:06:00;11.93;;;5.63;;
11839;SDS011;5979;50.800;4.904;2023-05-27T03:08:26;13.50;;;6.13;;
11839;SDS011;5979;50.800;4.904;2023-05-27T03:10:51;13.52;;;5.32;;
11839;SDS011;5979;50.800;4.904;2023-05-27T03:13:17;15.82;;;5.93;;
11839;SDS011;5979;50.800;4.904;2023-05-27T03:15:43;14.77;;;5.55;;
11839;SDS011;5979;50.800;4.904;2023-05-27T03:18:08;15.15;;;5.97;;
11839;SDS011;5979;50.800;4.904;2023-05-27T03:20:34;12.38;;;5.75;;
11839;SDS011;5979;50.800;4.904;2023-05-27T03:23:00;11.32;;;5.88;;
11839;SDS011;5979;50.800;4.904;2023-05-27T03:25:25;12.55;;;6.00;;
11839;SDS011;5979;50.800;4.904;2023-05-27T03:27:51;14.15;;;6.15;;
11839;SDS011;5979;50.800;4.904;2023-05-27T03:30:18;11.82;;;5.65;;
11839;SDS011;5979;50.800;4.904;2023-05-27T03:32:44;15.85;;;6.43;;
11839;SDS011;5979;50.800;4.904;2023-05-27T03:35:10;17.00;;;6.10;;
11839;SDS011;5979;50.800;4.904;2023-05-27T03:37:36;21.55;;;6.68;;
11839;SDS011;5979;50.800;4.904;2023-05-27T03:40:02;11.85;;;5.50;;
11839;SDS011;5979;50.800;4.904;2023-05-27T03:42:28;9.82;;;6.05;;
11839;SDS011;5979;50.800;4.904;2023-05-27T03:44:54;12.55;;;6.18;;
11839;SDS011;5979;50.800;4.904;2023-05-27T03:47:19;18.70;;;6.75;;
11839;SDS011;5979;50.800;4.904;2023-05-27T03:49:46;14.20;;;6.80;;
11839;SDS011;5979;50.800;4.904;2023-05-27T03:52:12;14.60;;;6.28;;
11839;SDS011;5979;50.800;4.904;2023-05-27T03:54:38;14.95;;;6.07;;
11839;SDS011;5979;50.800;4.904;2023-05-27T03:57:04;10.70;;;6.18;;
11839;SDS011;5979;50.800;4.904;2023-05-27T03:59:30;18.27;;;6.80;;
11839;SDS011;5979;50.800;4.904;2023-05-27T04:01:56;12.38;;;5.93;;
11839;SDS011;5979;50.800;4.904;2023-05-27T04:04:22;13.73;;;6.35;;
11839;SDS011;5979;50.800;4.904;2023-05-27T04:06:47;11.57;;;6.00;;
11839;SDS011;5979;50.800;4.904;2023-05-27T04:09:13;14.68;;;6.07;;
11839;SDS011;5979;50.800;4.904;2023-05-27T04:11:38;11.43;;;6.00;;
11839;SDS011;5979;50.800;4.904;2023-05-27T04:14:04;16.45;;;7.43;;
11839;SDS011;5979;50.800;4.904;2023-05-27T04:16:31;12.57;;;6.38;;
11839;SDS011;5979;50.800;4.904;2023-05-27T04:18:58;14.77;;;6.00;;
11839;SDS011;5979;50.800;4.904;2023-05-27T04:21:27;16.20;;;6.93;;
11839;SDS011;5979;50.800;4.904;2023-05-27T04:23:52;17.10;;;7.20;;
11839;SDS011;5979;50.800;4.904;2023-05-27T04:26:18;14.55;;;6.28;;
11839;SDS011;5979;50.800;4.904;2023-05-27T04:28:44;18.15;;;7.60;;
11839;SDS011;5979;50.800;4.904;2023-05-27T04:31:11;17.70;;;7.00;;
11839;SDS011;5979;50.800;4.904;2023-05-27T04:33:43;18.10;;;7.07;;
11839;SDS011;5979;50.800;4.904;2023-05-27T04:36:10;16.92;;;7.20;;
11839;SDS011;5979;50.800;4.904;2023-05-27T04:38:36;14.10;;;6.82;;
11839;SDS011;5979;50.800;4.904;2023-05-27T04:41:01;15.88;;;6.93;;
11839;SDS011;5979;50.800;4.904;2023-05-27T04:43:29;15.52;;;7.28;;
11839;SDS011;5979;50.800;4.904;2023-05-27T04:45:55;19.80;;;7.38;;
11839;SDS011;5979;50.800;4.904;2023-05-27T04:48:22;13.57;;;6.88;;
11839;SDS011;5979;50.800;4.904;2023-05-27T04:50:50;13.20;;;7.57;;
11839;SDS011;5979;50.800;4.904;2023-05-27T04:53:18;13.98;;;7.28;;
11839;SDS011;5979;50.800;4.904;2023-05-27T04:55:44;10.77;;;6.63;;
11839;SDS011;5979;50.800;4.904;2023-05-27T04:58:11;13.20;;;5.90;;
11839;SDS011;5979;50.800;4.904;2023-05-27T05:00:37;15.02;;;6.20;;
11839;SDS011;5979;50.800;4.904;2023-05-27T05:03:18;13.88;;;6.70;;
11839;SDS011;5979;50.800;4.904;2023-05-27T05:05:51;10.75;;;6.18;;
11839;SDS011;5979;50.800;4.904;2023-05-27T05:08:20;12.13;;;6.95;;
11839;SDS011;5979;50.800;4.904;2023-05-27T05:10:47;14.52;;;6.55;;
11839;SDS011;5979;50.800;4.904;2023-05-27T05:13:13;12.80;;;5.70;;
11839;SDS011;5979;50.800;4.904;2023-05-27T05:15:41;13.25;;;6.22;;
11839;SDS011;5979;50.800;4.904;2023-05-27T05:18:08;14.52;;;7.07;;
11839;SDS011;5979;50.800;4.904;2023-05-27T05:20:37;11.15;;;6.22;;
11839;SDS011;5979;50.800;4.904;2023-05-27T05:23:03;11.07;;;6.07;;
11839;SDS011;5979;50.800;4.904;2023-05-27T05:25:29;12.65;;;6.65;;
11839;SDS011;5979;50.800;4.904;2023-05-27T05:27:55;15.70;;;6.97;;
11839;SDS011;5979;50.800;4.904;2023-05-27T05:30:21;14.00;;;6.53;;
11839;SDS011;5979;50.800;4.904;2023-05-27T05:32:47;12.23;;;6.30;;
11839;SDS011;5979;50.800;4.904;2023-05-27T05:35:13;12.98;;;6.72;;
11839;SDS011;5979;50.800;4.904;2023-05-27T05:37:38;13.48;;;7.10;;
11839;SDS011;5979;50.800;4.904;2023-05-27T05:40:04;17.27;;;7.13;;
11839;SDS011;5979;50.800;4.904;2023-05-27T05:42:31;15.48;;;6.95;;
11839;SDS011;5979;50.800;4.904;2023-05-27T05:44:57;13.93;;;6.72;;
11839;SDS011;5979;50.800;4.904;2023-05-27T05:47:22;12.82;;;7.00;;
11839;SDS011;5979;50.800;4.904;2023-05-27T05:49:48;13.57;;;6.78;;
11839;SDS011;5979;50.800;4.904;2023-05-27T05:52:14;15.40;;;7.68;;
11839;SDS011;5979;50.800;4.904;2023-05-27T05:54:39;13.65;;;7.63;;
11839;SDS011;5979;50.800;4.904;2023-05-27T05:57:05;12.63;;;6.72;;
11839;SDS011;5979;50.800;4.904;2023-05-27T05:59:31;14.02;;;6.85;;
11839;SDS011;5979;50.800;4.904;2023-05-27T06:01:56;12.27;;;7.20;;
11839;SDS011;5979;50.800;4.904;2023-05-27T06:04:22;16.55;;;7.03;;
11839;SDS011;5979;50.800;4.904;2023-05-27T06:06:48;12.55;;;6.22;;
11839;SDS011;5979;50.800;4.904;2023-05-27T06:09:14;11.32;;;6.70;;
11839;SDS011;5979;50.800;4.904;2023-05-27T06:11:39;14.68;;;7.45;;
11839;SDS011;5979;50.800;4.904;2023-05-27T06:14:05;10.55;;;5.75;;
11839;SDS011;5979;50.800;4.904;2023-05-27T06:16:32;17.08;;;7.50;;
11839;SDS011;5979;50.800;4.904;2023-05-27T06:19:00;13.02;;;5.95;;
11839;SDS011;5979;50.800;4.904;2023-05-27T06:21:26;16.33;;;7.45;;
11839;SDS011;5979;50.800;4.904;2023-05-27T06:23:52;9.13;;;6.95;;
11839;SDS011;5979;50.800;4.904;2023-05-27T06:26:17;12.65;;;6.82;;
11839;SDS011;5979;50.800;4.904;2023-05-27T06:28:43;14.07;;;6.97;;
11839;SDS011;5979;50.800;4.904;2023-05-27T06:31:09;17.70;;;6.97;;
11839;SDS011;5979;50.800;4.904;2023-05-27T06:33:35;14.45;;;7.88;;
11839;SDS011;5979;50.800;4.904;2023-05-27T06:36:00;10.07;;;6.93;;
11839;SDS011;5979;50.800;4.904;2023-05-27T06:38:26;17.98;;;7.63;;
11839;SDS011;5979;50.800;4.904;2023-05-27T06:40:51;12.35;;;7.40;;
11839;SDS011;5979;50.800;4.904;2023-05-27T06:43:17;13.75;;;6.88;;
11839;SDS011;5979;50.800;4.904;2023-05-27T06:45:43;14.02;;;7.72;;
11839;SDS011;5979;50.800;4.904;2023-05-27T06:48:08;18.70;;;6.93;;
11839;SDS011;5979;50.800;4.904;2023-05-27T06:50:34;20.85;;;7.88;;
11839;SDS011;5979;50.800;4.904;2023-05-27T06:53:00;17.30;;;7.35;;
11839;SDS011;5979;50.800;4.904;2023-05-27T06:55:25;17.00;;;7.72;;
11839;SDS011;5979;50.800;4.904;2023-05-27T06:57:51;13.68;;;7.35;;
11839;SDS011;5979;50.800;4.904;2023-05-27T07:00:17;11.93;;;6.97;;
11839;SDS011;5979;50.800;4.904;2023-05-27T07:02:43;16.30;;;7.75;;
11839;SDS011;5979;50.800;4.904;2023-05-27T07:05:08;14.93;;;7.75;;
11839;SDS011;5979;50.800;4.904;2023-05-27T07:07:34;10.57;;;7.30;;
11839;SDS011;5979;50.800;4.904;2023-05-27T07:10:00;20.02;;;8.20;;
11839;SDS011;5979;50.800;4.904;2023-05-27T07:12:25;18.05;;;8.00;;
11839;SDS011;5979;50.800;4.904;2023-05-27T07:14:51;13.00;;;7.65;;
11839;SDS011;5979;50.800;4.904;2023-05-27T07:17:17;16.08;;;7.13;;
11839;SDS011;5979;50.800;4.904;2023-05-27T07:19:42;14.88;;;7.25;;
11839;SDS011;5979;50.800;4.904;2023-05-27T07:22:08;16.40;;;8.00;;
11839;SDS011;5979;50.800;4.904;2023-05-27T07:24:34;15.85;;;6.93;;
11839;SDS011;5979;50.800;4.904;2023-05-27T07:27:00;13.10;;;6.97;;
11839;SDS011;5979;50.800;4.904;2023-05-27T07:29:26;14.15;;;7.20;;
11839;SDS011;5979;50.800;4.904;2023-05-27T07:31:52;13.52;;;6.85;;
11839;SDS011;5979;50.800;4.904;2023-05-27T07:34:17;18.27;;;7.40;;
11839;SDS011;5979;50.800;4.904;2023-05-27T07:36:43;13.70;;;7.15;;
11839;SDS011;5979;50.800;4.904;2023-05-27T07:39:09;14.68;;;6.90;;
11839;SDS011;5979;50.800;4.904;2023-05-27T07:41:35;18.63;;;7.68;;
11839;SDS011;5979;50.800;4.904;2023-05-27T07:44:00;13.70;;;6.88;;
11839;SDS011;5979;50.800;4.904;2023-05-27T07:46:26;13.38;;;7.75;;
11839;SDS011;5979;50.800;4.904;2023-05-27T07:48:51;17.25;;;7.13;;
11839;SDS011;5979;50.800;4.904;2023-05-27T07:51:17;16.50;;;7.45;;
11839;SDS011;5979;50.800;4.904;2023-05-27T07:53:43;17.92;;;7.78;;
11839;SDS011;5979;50.800;4.904;2023-05-27T07:56:09;15.43;;;7.63;;
11839;SDS011;5979;50.800;4.904;2023-05-27T07:58:34;16.38;;;7.38;;
11839;SDS011;5979;50.800;4.904;2023-05-27T08:01:00;13.38;;;6.70;;
11839;SDS011;5979;50.800;4.904;2023-05-27T08:03:25;16.55;;;7.30;;
11839;SDS011;5979;50.800;4.904;2023-05-27T08:05:51;15.10;;;6.82;;
11839;SDS011;5979;50.800;4.904;2023-05-27T08:08:17;13.95;;;7.35;;
11839;SDS011;5979;50.800;4.904;2023-05-27T08:10:42;12.73;;;6.18;;
11839;SDS011;5979;50.800;4.904;2023-05-27T08:13:09;14.10;;;7.07;;
11839;SDS011;5979;50.800;4.904;2023-05-27T08:15:35;14.75;;;7.50;;
11839;SDS011;5979;50.800;4.904;2023-05-27T08:18:02;18.38;;;7.75;;
11839;SDS011;5979;50.800;4.904;2023-05-27T08:20:27;12.80;;;6.43;;
11839;SDS011;5979;50.800;4.904;2023-05-27T08:22:53;14.18;;;7.20;;
11839;SDS011;5979;50.800;4.904;2023-05-27T08:25:19;15.10;;;6.68;;
11839;SDS011;5979;50.800;4.904;2023-05-27T08:27:52;13.48;;;6.85;;
11839;SDS011;5979;50.800;4.904;2023-05-27T08:30:20;12.63;;;6.35;;
11839;SDS011;5979;50.800;4.904;2023-05-27T08:32:46;13.95;;;7.10;;
11839;SDS011;5979;50.800;4.904;2023-05-27T08:35:12;13.82;;;7.15;;
11839;SDS011;5979;50.800;4.904;2023-05-27T08:37:38;15.77;;;7.68;;
11839;SDS011;5979;50.800;4.904;2023-05-27T08:40:06;15.23;;;7.55;;
11839;SDS011;5979;50.800;4.904;2023-05-27T08:42:35;16.77;;;6.97;;
11839;SDS011;5979;50.800;4.904;2023-05-27T08:45:01;12.25;;;6.50;;
11839;SDS011;5979;50.800;4.904;2023-05-27T08:47:30;13.77;;;7.50;;
11839;SDS011;5979;50.800;4.904;2023-05-27T08:49:56;14.00;;;6.45;;
11839;SDS011;5979;50.800;4.904;2023-05-27T08:52:23;13.15;;;6.45;;
11839;SDS011;5979;50.800;4.904;2023-05-27T08:54:52;9.93;;;6.80;;
11839;SDS011;5979;50.800;4.904;2023-05-27T08:57:19;15.13;;;7.72;;
11839;SDS011;5979;50.800;4.904;2023-05-27T08:59:49;17.92;;;7.22;;
11839;SDS011;5979;50.800;4.904;2023-05-27T09:02:18;10.60;;;6.55;;
11839;SDS011;5979;50.800;4.904;2023-05-27T09:04:46;11.32;;;6.50;;
11839;SDS011;5979;50.800;4.904;2023-05-27T09:07:12;14.35;;;6.53;;
11839;SDS011;5979;50.800;4.904;2023-05-27T09:09:38;12.35;;;7.28;;
11839;SDS011;5979;50.800;4.904;2023-05-27T09:12:05;11.45;;;6.53;;
11839;SDS011;5979;50.800;4.904;2023-05-27T09:14:31;10.65;;;5.80;;
11839;SDS011;5979;50.800;4.904;2023-05-27T09:16:57;12.57;;;6.53;;
11839;SDS011;5979;50.800;4.904;2023-05-27T09:19:30;11.10;;;5.95;;
11839;SDS011;5979;50.800;4.904;2023-05-27T09:21:56;14.52;;;7.18;;
11839;SDS011;5979;50.800;4.904;2023-05-27T09:24:25;14.60;;;6.85;;
11839;SDS011;5979;50.800;4.904;2023-05-27T09:26:51;12.23;;;5.97;;
11839;SDS011;5979;50.800;4.904;2023-05-27T09:29:26;14.95;;;6.90;;
11839;SDS011;5979;50.800;4.904;2023-05-27T09:31:55;11.75;;;6.00;;
11839;SDS011;5979;50.800;4.904;2023-05-27T09:34:21;14.52;;;7.18;;
11839;SDS011;5979;50.800;4.904;2023-05-27T09:36:48;18.08;;;6.88;;
11839;SDS011;5979;50.800;4.904;2023-05-27T09:39:17;14.25;;;7.05;;
11839;SDS011;5979;50.800;4.904;2023-05-27T09:41:55;11.90;;;7.00;;
11839;SDS011;5979;50.800;4.904;2023-05-27T09:44:24;14.13;;;5.90;;
11839;SDS011;5979;50.800;4.904;2023-05-27T09:46:54;11.65;;;5.90;;
11839;SDS011;5979;50.800;4.904;2023-05-27T09:49:21;14.38;;;6.25;;
11839;SDS011;5979;50.800;4.904;2023-05-27T09:51:50;14.00;;;6.53;;
11839;SDS011;5979;50.800;4.904;2023-05-27T09:54:17;11.07;;;6.65;;
11839;SDS011;5979;50.800;4.904;2023-05-27T09:56:44;13.35;;;6.35;;
11839;SDS011;5979;50.800;4.904;2023-05-27T09:59:13;14.27;;;6.88;;
11839;SDS011;5979;50.800;4.904;2023-05-27T10:01:39;13.45;;;6.05;;
11839;SDS011;5979;50.800;4.904;2023-05-27T10:04:06;13.32;;;6.53;;
11839;SDS011;5979;50.800;4.904;2023-05-27T10:06:33;12.20;;;5.80;;
11839;SDS011;5979;50.800;4.904;2023-05-27T10:09:00;12.13;;;7.05;;
11839;SDS011;5979;50.800;4.904;2023-05-27T10:11:31;12.80;;;5.72;;
11839;SDS011;5979;50.800;4.904;2023-05-27T10:14:01;16.80;;;6.53;;
11839;SDS011;5979;50.800;4.904;2023-05-27T10:16:27;12.80;;;6.30;;
11839;SDS011;5979;50.800;4.904;2023-05-27T10:18:53;11.77;;;6.53;;
11839;SDS011;5979;50.800;4.904;2023-05-27T10:21:20;10.80;;;5.80;;
11839;SDS011;5979;50.800;4.904;2023-05-27T10:23:57;11.50;;;5.22;;
11839;SDS011;5979;50.800;4.904;2023-05-27T10:26:38;11.50;;;5.25;;
11839;SDS011;5979;50.800;4.904;2023-05-27T10:29:11;10.98;;;6.10;;
11839;SDS011;5979;50.800;4.904;2023-05-27T10:31:45;10.98;;;5.28;;
11839;SDS011;5979;50.800;4.904;2023-05-27T10:34:12;9.18;;;5.50;;
11839;SDS011;5979;50.800;4.904;2023-05-27T10:36:38;12.23;;;5.45;;
11839;SDS011;5979;50.800;4.904;2023-05-27T10:39:05;10.30;;;5.18;;
11839;SDS011;5979;50.800;4.904;2023-05-27T10:41:41;10.85;;;5.90;;
11839;SDS011;5979;50.800;4.904;2023-05-27T10:44:07;12.30;;;5.32;;
11839;SDS011;5979;50.800;4.904;2023-05-27T10:46:43;15.55;;;5.78;;
11839;SDS011;5979;50.800;4.904;2023-05-27T10:49:21;12.48;;;5.38;;
11839;SDS011;5979;50.800;4.904;2023-05-27T10:51:52;13.60;;;5.55;;
11839;SDS011;5979;50.800;4.904;2023-05-27T10:54:19;9.85;;;4.78;;
11839;SDS011;5979;50.800;4.904;2023-05-27T10:56:49;8.30;;;4.93;;
11839;SDS011;5979;50.800;4.904;2023-05-27T10:59:20;9.80;;;5.35;;
11839;SDS011;5979;50.800;4.904;2023-05-27T11:01:50;9.68;;;4.95;;
11839;SDS011;5979;50.800;4.904;2023-05-27T11:04:20;11.10;;;4.78;;
11839;SDS011;5979;50.800;4.904;2023-05-27T11:06:57;12.80;;;4.93;;
11839;SDS011;5979;50.800;4.904;2023-05-27T11:09:24;11.25;;;4.60;;
11839;SDS011;5979;50.800;4.904;2023-05-27T11:11:50;8.80;;;5.25;;
11839;SDS011;5979;50.800;4.904;2023-05-27T11:14:16;14.77;;;4.90;;
11839;SDS011;5979;50.800;4.904;2023-05-27T11:16:47;13.82;;;5.53;;
11839;SDS011;5979;50.800;4.904;2023-05-27T11:19:16;11.38;;;4.80;;
11839;SDS011;5979;50.800;4.904;2023-05-27T11:21:49;8.63;;;4.50;;
11839;SDS011;5979;50.800;4.904;2023-05-27T11:24:18;8.57;;;4.18;;
11839;SDS011;5979;50.800;4.904;2023-05-27T11:26:46;9.38;;;4.43;;
11839;SDS011;5979;50.800;4.904;2023-05-27T11:29:15;6.80;;;4.75;;
11839;SDS011;5979;50.800;4.904;2023-05-27T11:31:41;7.60;;;4.55;;
11839;SDS011;5979;50.800;4.904;2023-05-27T11:34:12;6.78;;;4.47;;
11839;SDS011;5979;50.800;4.904;2023-05-27T11:36:44;9.15;;;4.43;;
11839;SDS011;5979;50.800;4.904;2023-05-27T11:39:13;9.98;;;4.43;;
11839;SDS011;5979;50.800;4.904;2023-05-27T11:41:50;9.23;;;5.13;;
11839;SDS011;5979;50.800;4.904;2023-05-27T11:44:17;14.07;;;4.55;;
11839;SDS011;5979;50.800;4.904;2023-05-27T11:46:45;11.82;;;4.25;;
11839;SDS011;5979;50.800;4.904;2023-05-27T11:49:12;9.68;;;4.63;;
11839;SDS011;5979;50.800;4.904;2023-05-27T11:51:39;7.03;;;4.20;;
11839;SDS011;5979;50.800;4.904;2023-05-27T11:54:07;10.57;;;4.47;;
11839;SDS011;5979;50.800;4.904;2023-05-27T11:56:41;9.35;;;4.43;;
11839;SDS011;5979;50.800;4.904;2023-05-27T11:59:07;9.32;;;4.47;;
11839;SDS011;5979;50.800;4.904;2023-05-27T12:01:33;8.32;;;4.53;;
11839;SDS011;5979;50.800;4.904;2023-05-27T12:03:59;7.45;;;5.30;;
11839;SDS011;5979;50.800;4.904;2023-05-27T12:06:25;11.25;;;5.05;;
11839;SDS011;5979;50.800;4.904;2023-05-27T12:08:50;9.73;;;4.65;;
11839;SDS011;5979;50.800;4.904;2023-05-27T12:11:16;7.50;;;4.30;;
11839;SDS011;5979;50.800;4.904;2023-05-27T12:13:42;10.18;;;4.70;;
11839;SDS011;5979;50.800;4.904;2023-05-27T12:16:08;9.30;;;5.05;;
11839;SDS011;5979;50.800;4.904;2023-05-27T12:18:34;8.18;;;5.07;;
11839;SDS011;5979;50.800;4.904;2023-05-27T12:21:00;9.20;;;4.88;;
11839;SDS011;5979;50.800;4.904;2023-05-27T12:23:26;8.55;;;5.18;;
11839;SDS011;5979;50.800;4.904;2023-05-27T12:25:52;9.98;;;4.68;;
11839;SDS011;5979;50.800;4.904;2023-05-27T12:28:17;10.50;;;4.93;;
11839;SDS011;5979;50.800;4.904;2023-05-27T12:30:43;14.23;;;4.97;;
11839;SDS011;5979;50.800;4.904;2023-05-27T12:33:09;11.00;;;4.45;;
11839;SDS011;5979;50.800;4.904;2023-05-27T12:35:34;7.93;;;4.05;;
11839;SDS011;5979;50.800;4.904;2023-05-27T12:38:00;13.35;;;4.78;;
11839;SDS011;5979;50.800;4.904;2023-05-27T12:40:26;8.25;;;4.00;;
11839;SDS011;5979;50.800;4.904;2023-05-27T12:42:52;9.52;;;4.65;;
11839;SDS011;5979;50.800;4.904;2023-05-27T12:45:18;12.23;;;4.80;;
11839;SDS011;5979;50.800;4.904;2023-05-27T12:47:47;9.15;;;4.88;;
11839;SDS011;5979;50.800;4.904;2023-05-27T12:50:13;8.00;;;4.32;;
11839;SDS011;5979;50.800;4.904;2023-05-27T12:52:39;7.35;;;3.90;;
11839;SDS011;5979;50.800;4.904;2023-05-27T12:55:11;8.38;;;4.47;;
11839;SDS011;5979;50.800;4.904;2023-05-27T12:57:37;7.50;;;4.78;;
11839;SDS011;5979;50.800;4.904;2023-05-27T13:02:48;10.18;;;5.30;;
11839;SDS011;5979;50.800;4.904;2023-05-27T13:05:14;9.43;;;4.53;;
11839;SDS011;5979;50.800;4.904;2023-05-27T13:07:41;9.23;;;4.13;;
11839;SDS011;5979;50.800;4.904;2023-05-27T13:10:28;9.57;;;4.90;;
11839;SDS011;5979;50.800;4.904;2023-05-27T13:12:54;7.35;;;4.28;;
11839;SDS011;5979;50.800;4.904;2023-05-27T13:15:21;9.90;;;4.45;;
11839;SDS011;5979;50.800;4.904;2023-05-27T13:17:48;9.98;;;4.72;;
11839;SDS011;5979;50.800;4.904;2023-05-27T13:20:15;8.95;;;4.35;;
11839;SDS011;5979;50.800;4.904;2023-05-27T13:22:42;10.95;;;4.47;;
11839;SDS011;5979;50.800;4.904;2023-05-27T13:25:08;8.25;;;4.53;;
11839;SDS011;5979;50.800;4.904;2023-05-27T13:27:36;9.52;;;4.25;;
11839;SDS011;5979;50.800;4.904;2023-05-27T13:30:02;7.28;;;4.45;;
11839;SDS011;5979;50.800;4.904;2023-05-27T13:32:28;8.65;;;4.80;;
11839;SDS011;5979;50.800;4.904;2023-05-27T13:34:54;10.07;;;4.32;;
11839;SDS011;5979;50.800;4.904;2023-05-27T13:37:20;11.85;;;4.80;;
11839;SDS011;5979;50.800;4.904;2023-05-27T13:39:46;9.90;;;4.63;;
11839;SDS011;5979;50.800;4.904;2023-05-27T13:42:12;9.25;;;4.85;;
11839;SDS011;5979;50.800;4.904;2023-05-27T13:44:38;9.77;;;4.93;;
11839;SDS011;5979;50.800;4.904;2023-05-27T13:47:03;9.60;;;4.53;;
11839;SDS011;5979;50.800;4.904;2023-05-27T13:49:29;6.15;;;4.18;;
11839;SDS011;5979;50.800;4.904;2023-05-27T13:51:55;9.88;;;4.68;;
11839;SDS011;5979;50.800;4.904;2023-05-27T13:54:22;9.35;;;5.03;;
11839;SDS011;5979;50.800;4.904;2023-05-27T13:56:48;8.88;;;4.50;;
11839;SDS011;5979;50.800;4.904;2023-05-27T13:59:14;8.60;;;4.10;;
11839;SDS011;5979;50.800;4.904;2023-05-27T14:01:40;9.25;;;4.70;;
11839;SDS011;5979;50.800;4.904;2023-05-27T14:04:06;8.18;;;4.72;;
11839;SDS011;5979;50.800;4.904;2023-05-27T14:06:32;9.43;;;4.75;;
11839;SDS011;5979;50.800;4.904;2023-05-27T14:08:58;6.85;;;3.92;;
11839;SDS011;5979;50.800;4.904;2023-05-27T14:11:24;11.02;;;5.20;;
11839;SDS011;5979;50.800;4.904;2023-05-27T14:13:50;9.32;;;4.72;;
11839;SDS011;5979;50.800;4.904;2023-05-27T14:16:17;9.50;;;4.30;;
11839;SDS011;5979;50.800;4.904;2023-05-27T14:18:43;9.10;;;4.40;;
11839;SDS011;5979;50.800;4.904;2023-05-27T14:21:12;8.27;;;4.22;;
11839;SDS011;5979;50.800;4.904;2023-05-27T14:23:39;6.85;;;4.38;;
11839;SDS011;5979;50.800;4.904;2023-05-27T14:26:05;8.35;;;4.75;;
11839;SDS011;5979;50.800;4.904;2023-05-27T14:28:31;8.50;;;4.82;;
11839;SDS011;5979;50.800;4.904;2023-05-27T14:30:58;9.15;;;4.93;;
11839;SDS011;5979;50.800;4.904;2023-05-27T14:33:23;9.88;;;4.40;;
11839;SDS011;5979;50.800;4.904;2023-05-27T14:35:49;9.43;;;4.45;;
11839;SDS011;5979;50.800;4.904;2023-05-27T14:38:16;8.57;;;4.20;;
11839;SDS011;5979;50.800;4.904;2023-05-27T14:40:42;9.70;;;4.28;;
11839;SDS011;5979;50.800;4.904;2023-05-27T14:43:11;8.85;;;4.32;;
11839;SDS011;5979;50.800;4.904;2023-05-27T14:45:37;7.50;;;4.40;;
11839;SDS011;5979;50.800;4.904;2023-05-27T14:48:03;9.00;;;4.38;;
11839;SDS011;5979;50.800;4.904;2023-05-27T14:50:29;7.13;;;4.43;;
11839;SDS011;5979;50.800;4.904;2023-05-27T14:52:55;9.60;;;4.53;;
11839;SDS011;5979;50.800;4.904;2023-05-27T14:55:21;7.22;;;4.65;;
11839;SDS011;5979;50.800;4.904;2023-05-27T14:57:46;10.10;;;5.32;;
11839;SDS011;5979;50.800;4.904;2023-05-27T15:00:12;8.07;;;4.47;;